Time;durP1;ratioP1;P1;durP2;ratioP2;P2;SDS_P1;SDS_P2;PMS_P1;PMS_P2;Temp;Humidity;BMP_temperature;BMP_pressure;BME280_temperature;BME280_humidity;BME280_pressure;Samples;Min_cycle;Max_cycle;Signal;HPM_P1;HPM_P2
2022/01/23 00:00:32;;;;;;;10.43;6.80;;;;;;;;;;5102969;28;20194;-69
2022/01/23 00:03:20;;;;;;;10.83;6.50;;;;;;;;;;5100882;28;20198;-69
2022/01/23 00:06:06;;;;;;;12.73;6.70;;;;;;;;;;5098663;28;20205;-69
2022/01/23 00:08:53;;;;;;;11.10;6.40;;;;;;;;;;5102455;28;20236;-69
2022/01/23 00:11:46;;;;;;;11.77;6.53;;;;;;;;;;5100806;27;20210;-68
2022/01/23 00:17:39;;;;;;;10.90;6.63;;;;;;;;;;5106113;27;20251;-68
2022/01/23 00:20:26;;;;;;;10.43;6.63;;;;;;;;;;5095215;27;20292;-68
2022/01/23 00:23:26;;;;;;;9.40;6.10;;;;;;;;;;5100794;28;20283;-69
2022/01/23 00:32:23;;;;;;;9.17;5.93;;;;;;;;;;5100242;28;20696;-69
2022/01/23 00:35:10;;;;;;;9.53;6.60;;;;;;;;;;5098327;28;20201;-68
2022/01/23 00:37:57;;;;;;;10.93;6.20;;;;;;;;;;5100148;28;20256;-68
2022/01/23 00:40:45;;;;;;;9.13;5.90;;;;;;;;;;5099862;28;20210;-69
2022/01/23 00:43:35;;;;;;;8.30;5.77;;;;;;;;;;5100014;28;20988;-69
2022/01/23 00:46:30;;;;;;;9.63;6.27;;;;;;;;;;5100806;28;20211;-68
2022/01/23 00:49:27;;;;;;;8.47;5.40;;;;;;;;;;5100881;28;20198;-69
2022/01/23 00:52:17;;;;;;;8.10;5.67;;;;;;;;;;5097183;28;20285;-68
2022/01/23 00:55:05;;;;;;;6.77;5.70;;;;;;;;;;5098542;28;20198;-68
2022/01/23 00:57:53;;;;;;;7.53;5.70;;;;;;;;;;5094592;28;20209;-69
2022/01/23 01:00:41;;;;;;;8.57;5.87;;;;;;;;;;5099945;28;20238;-68
2022/01/23 01:03:28;;;;;;;8.10;5.43;;;;;;;;;;5098384;28;20294;-69
2022/01/23 01:06:17;;;;;;;7.60;5.90;;;;;;;;;;5101214;28;20202;-69
2022/01/23 01:09:07;;;;;;;8.37;5.83;;;;;;;;;;5099557;28;20564;-68
2022/01/23 01:12:00;;;;;;;8.27;5.77;;;;;;;;;;5097630;28;20262;-68
2022/01/23 01:15:22;;;;;;;5.87;5.27;;;;;;;;;;5101614;28;20213;-69
2022/01/23 01:30:33;;;;;;;6.77;5.30;;;;;;;;;;5104816;28;20212;-69
2022/01/23 01:33:29;;;;;;;7.47;5.53;;;;;;;;;;5100317;28;20239;-68
2022/01/23 01:36:24;;;;;;;7.57;5.80;;;;;;;;;;5103421;28;20221;-68
2022/01/23 01:39:12;;;;;;;6.73;5.30;;;;;;;;;;5103970;28;20284;-69
2022/01/23 01:42:00;;;;;;;6.83;5.67;;;;;;;;;;5098655;28;20226;-69
2022/01/23 01:44:47;;;;;;;7.67;6.23;;;;;;;;;;5100892;28;20209;-68
2022/01/23 01:47:34;;;;;;;6.70;5.47;;;;;;;;;;5099522;27;20278;-69
2022/01/23 01:50:21;;;;;;;6.70;5.33;;;;;;;;;;5104860;28;20323;-68
2022/01/23 01:53:10;;;;;;;5.83;5.23;;;;;;;;;;5104012;28;20237;-68
2022/01/23 01:55:57;;;;;;;6.67;5.73;;;;;;;;;;5107820;28;20660;-69
2022/01/23 01:59:12;;;;;;;7.13;5.93;;;;;;;;;;5106982;27;20209;-68
2022/01/23 02:08:23;;;;;;;6.30;5.27;;;;;;;;;;5105709;27;20202;-68
2022/01/23 02:11:15;;;;;;;5.93;5.33;;;;;;;;;;5099496;28;20209;-69
2022/01/23 02:14:15;;;;;;;6.90;5.77;;;;;;;;;;5108383;27;20203;-68
2022/01/23 02:17:21;;;;;;;6.13;5.27;;;;;;;;;;5100375;27;20649;-69
2022/01/23 02:23:32;;;;;;;5.77;5.13;;;;;;;;;;5105904;27;20222;-68
2022/01/23 02:50:57;;;;;;;4.33;3.93;;;;;;;;;;5099736;28;20206;-68
2022/01/23 02:54:07;;;;;;;4.40;4.00;;;;;;;;;;5104573;27;20289;-69
2022/01/23 02:56:57;;;;;;;4.10;3.80;;;;;;;;;;5104446;27;20460;-69
2022/01/23 02:59:44;;;;;;;4.20;3.90;;;;;;;;;;5097238;28;20218;-68
2022/01/23 03:02:36;;;;;;;4.03;3.70;;;;;;;;;;5099855;28;20774;-69
2022/01/23 03:05:34;;;;;;;3.70;3.40;;;;;;;;;;5102683;28;20218;-68
2022/01/23 03:08:30;;;;;;;3.93;3.63;;;;;;;;;;5097238;28;20217;-68
2022/01/23 03:11:41;;;;;;;3.60;3.30;;;;;;;;;;5105786;28;20229;-70
2022/01/23 03:14:37;;;;;;;3.70;3.50;;;;;;;;;;5098275;28;20206;-69
2022/01/23 03:26:53;;;;;;;3.33;3.10;;;;;;;;;;5100644;27;20598;-69
2022/01/23 03:29:52;;;;;;;3.00;2.80;;;;;;;;;;5104362;27;20228;-68
2022/01/23 03:32:43;;;;;;;3.13;2.93;;;;;;;;;;5098134;27;20214;-68
2022/01/23 03:35:30;;;;;;;2.70;2.60;;;;;;;;;;5104231;27;20299;-68
2022/01/23 03:38:17;;;;;;;2.70;2.60;;;;;;;;;;5095904;28;20252;-69
2022/01/23 03:41:06;;;;;;;2.27;2.17;;;;;;;;;;5105158;27;20240;-68
2022/01/23 03:43:53;;;;;;;3.00;2.80;;;;;;;;;;5100963;28;20795;-68
2022/01/23 03:46:50;;;;;;;2.40;2.30;;;;;;;;;;5099917;28;20718;-68
2022/01/23 03:49:37;;;;;;;1.90;1.90;;;;;;;;;;5104423;27;20216;-68
2022/01/23 03:52:26;;;;;;;2.33;2.23;;;;;;;;;;5099660;28;20290;-68
2022/01/23 03:55:13;;;;;;;2.50;2.40;;;;;;;;;;5103238;28;20213;-69
2022/01/23 03:58:01;;;;;;;2.27;2.17;;;;;;;;;;5096429;27;20238;-68
2022/01/23 04:00:48;;;;;;;2.50;2.40;;;;;;;;;;5101421;27;20579;-68
2022/01/23 04:03:38;;;;;;;2.50;2.40;;;;;;;;;;5099818;27;20806;-69
2022/01/23 04:06:24;;;;;;;2.60;2.40;;;;;;;;;;5096390;28;20217;-69
2022/01/23 04:09:11;;;;;;;2.20;2.10;;;;;;;;;;5103392;27;20233;-68
2022/01/23 04:11:59;;;;;;;2.07;1.97;;;;;;;;;;5102129;28;20205;-69
2022/01/23 04:14:54;;;;;;;1.87;1.77;;;;;;;;;;5102981;27;20741;-68
2022/01/23 04:20:52;;;;;;;2.10;2.00;;;;;;;;;;5097557;28;20209;-69
2022/01/23 04:33:17;;;;;;;1.67;1.67;;;;;;;;;;5100987;28;20198;-68
2022/01/23 04:45:26;;;;;;;1.90;1.80;;;;;;;;;;5099148;28;20202;-68
2022/01/23 05:00:52;;;;;;;1.90;1.80;;;;;;;;;;5098412;28;20215;-68
2022/01/23 05:06:45;;;;;;;1.90;1.80;;;;;;;;;;5101351;28;20204;-68
2022/01/23 05:09:32;;;;;;;1.70;1.70;;;;;;;;;;5098992;28;20203;-68
2022/01/23 05:12:23;;;;;;;1.80;1.70;;;;;;;;;;5100382;28;20296;-68
2022/01/23 05:15:11;;;;;;;1.87;1.80;;;;;;;;;;5100772;28;20331;-69
2022/01/23 05:18:00;;;;;;;1.90;1.80;;;;;;;;;;5101571;28;20230;-69
2022/01/23 05:20:50;;;;;;;1.90;1.80;;;;;;;;;;5100593;27;20913;-69
2022/01/23 05:23:37;;;;;;;2.00;1.90;;;;;;;;;;5102610;28;20359;-69
2022/01/23 05:26:24;;;;;;;1.70;1.60;;;;;;;;;;5108141;27;20282;-68
2022/01/23 05:29:12;;;;;;;1.80;1.80;;;;;;;;;;5103451;28;20206;-69
2022/01/23 05:31:58;;;;;;;1.57;1.57;;;;;;;;;;5105172;27;20277;-69
2022/01/23 05:34:48;;;;;;;1.90;1.80;;;;;;;;;;5104144;27;20210;-69
2022/01/23 05:37:35;;;;;;;1.43;1.43;;;;;;;;;;5102259;28;20214;-68
2022/01/23 05:40:25;;;;;;;1.50;1.50;;;;;;;;;;5103009;27;20301;-69
2022/01/23 05:43:12;;;;;;;2.00;1.90;;;;;;;;;;5105483;28;20775;-69
2022/01/23 05:45:58;;;;;;;2.10;2.00;;;;;;;;;;5105755;27;20665;-69
2022/01/23 05:48:45;;;;;;;1.83;1.77;;;;;;;;;;5098799;28;20355;-68
2022/01/23 05:51:34;;;;;;;1.80;1.70;;;;;;;;;;5108105;27;20654;-68
2022/01/23 05:54:21;;;;;;;1.93;1.83;;;;;;;;;;5103056;27;20251;-68
2022/01/23 05:57:08;;;;;;;2.00;1.90;;;;;;;;;;5101480;28;20226;-68
2022/01/23 05:59:55;;;;;;;2.03;1.93;;;;;;;;;;5106983;27;20245;-69
2022/01/23 06:02:42;;;;;;;2.07;1.97;;;;;;;;;;5101034;28;20275;-68
2022/01/23 06:05:29;;;;;;;2.10;2.00;;;;;;;;;;5105517;27;20213;-68
2022/01/23 06:08:17;;;;;;;1.90;1.80;;;;;;;;;;5097225;28;20202;-68
2022/01/23 06:11:04;;;;;;;1.80;1.80;;;;;;;;;;5102804;28;20206;-68
2022/01/23 06:13:51;;;;;;;1.87;1.80;;;;;;;;;;5101110;28;20214;-68
2022/01/23 06:16:38;;;;;;;1.97;1.87;;;;;;;;;;5098949;28;20611;-68
2022/01/23 06:19:25;;;;;;;1.80;1.70;;;;;;;;;;5105984;27;20289;-68
2022/01/23 06:22:14;;;;;;;1.93;1.83;;;;;;;;;;5104227;28;20209;-66
2022/01/23 06:25:05;;;;;;;2.10;2.00;;;;;;;;;;5104343;28;20213;-68
2022/01/23 06:27:52;;;;;;;2.00;1.90;;;;;;;;;;5099582;28;20237;-69
2022/01/23 06:30:39;;;;;;;1.93;1.83;;;;;;;;;;5099860;28;20313;-68
2022/01/23 06:33:26;;;;;;;2.30;2.20;;;;;;;;;;5101593;28;20572;-69
2022/01/23 06:36:13;;;;;;;2.00;1.90;;;;;;;;;;5103294;28;20285;-68
2022/01/23 06:39:01;;;;;;;2.00;1.90;;;;;;;;;;5106205;27;20321;-69
2022/01/23 06:41:50;;;;;;;2.00;1.90;;;;;;;;;;4854412;28;20239;-70
2022/01/23 06:44:37;;;;;;;2.03;1.93;;;;;;;;;;4918818;28;20236;-68
2022/01/23 06:47:24;;;;;;;2.00;1.90;;;;;;;;;;5031454;28;20217;-69
2022/01/23 06:50:11;;;;;;;2.03;1.93;;;;;;;;;;5029162;28;20208;-68
2022/01/23 06:52:58;;;;;;;2.27;2.17;;;;;;;;;;5030656;28;20291;-69
2022/01/23 06:55:45;;;;;;;2.33;2.23;;;;;;;;;;5032606;28;20342;-68
2022/01/23 06:58:34;;;;;;;2.20;2.10;;;;;;;;;;5027731;28;20293;-69
2022/01/23 07:01:21;;;;;;;2.27;2.17;;;;;;;;;;5030153;28;20240;-68
2022/01/23 07:04:07;;;;;;;2.30;2.20;;;;;;;;;;5029342;28;20259;-68
2022/01/23 07:06:54;;;;;;;2.13;2.03;;;;;;;;;;5029094;28;20315;-68
2022/01/23 07:09:41;;;;;;;2.23;2.13;;;;;;;;;;5029725;28;20740;-68
2022/01/23 07:12:28;;;;;;;2.20;2.10;;;;;;;;;;5027621;28;20242;-68
2022/01/23 07:15:17;;;;;;;2.30;2.20;;;;;;;;;;5030373;28;20290;-68
2022/01/23 07:18:04;;;;;;;2.37;2.27;;;;;;;;;;5031460;28;20216;-68
2022/01/23 07:20:51;;;;;;;2.27;2.17;;;;;;;;;;5030119;28;20204;-69
2022/01/23 07:23:37;;;;;;;2.27;2.17;;;;;;;;;;5029981;28;20253;-68
2022/01/23 07:26:26;;;;;;;2.40;2.30;;;;;;;;;;5030254;28;20338;-70
2022/01/23 07:29:15;;;;;;;2.13;2.03;;;;;;;;;;5029074;28;20213;-69
2022/01/23 07:32:08;;;;;;;2.20;2.10;;;;;;;;;;5029108;28;20680;-69
2022/01/23 07:34:54;;;;;;;2.37;2.27;;;;;;;;;;5029471;28;20213;-68
2022/01/23 07:37:42;;;;;;;2.40;2.30;;;;;;;;;;5028333;28;20208;-68
2022/01/23 07:40:29;;;;;;;2.37;2.27;;;;;;;;;;5010683;28;20296;-69
2022/01/23 07:43:16;;;;;;;2.50;2.40;;;;;;;;;;5009189;28;20291;-68
2022/01/23 07:46:03;;;;;;;2.40;2.30;;;;;;;;;;5009766;28;20363;-68
2022/01/23 07:48:51;;;;;;;2.43;2.33;;;;;;;;;;5012536;28;20209;-68
2022/01/23 07:51:39;;;;;;;2.63;2.53;;;;;;;;;;5009752;28;20303;-68
2022/01/23 07:54:26;;;;;;;2.70;2.60;;;;;;;;;;5008036;28;20324;-68
2022/01/23 07:57:13;;;;;;;2.73;2.63;;;;;;;;;;5010275;28;20263;-68
2022/01/23 08:00:00;;;;;;;2.47;2.37;;;;;;;;;;5009770;28;20668;-68
2022/01/23 08:02:47;;;;;;;2.40;2.30;;;;;;;;;;5009862;28;20263;-68
2022/01/23 08:05:36;;;;;;;2.47;2.37;;;;;;;;;;5007296;28;20295;-68
2022/01/23 08:08:23;;;;;;;2.40;2.30;;;;;;;;;;5012189;28;20339;-68
2022/01/23 08:11:10;;;;;;;2.53;2.43;;;;;;;;;;5009526;28;20296;-68
2022/01/23 08:13:56;;;;;;;2.70;2.60;;;;;;;;;;5008852;28;20287;-68
2022/01/23 08:16:43;;;;;;;2.40;2.30;;;;;;;;;;5011764;28;20271;-68
2022/01/23 08:19:30;;;;;;;2.70;2.60;;;;;;;;;;5009451;28;20225;-68
2022/01/23 08:22:19;;;;;;;2.60;2.50;;;;;;;;;;5008288;28;20296;-68
2022/01/23 08:25:06;;;;;;;2.20;2.10;;;;;;;;;;5008897;28;20227;-68
2022/01/23 08:27:53;;;;;;;2.70;2.50;;;;;;;;;;5012389;28;20252;-68
2022/01/23 08:30:40;;;;;;;2.47;2.37;;;;;;;;;;5009689;28;20232;-68
2022/01/23 08:33:27;;;;;;;2.70;2.60;;;;;;;;;;5005149;28;20300;-69
2022/01/23 08:36:15;;;;;;;2.70;2.60;;;;;;;;;;5012026;28;20212;-68
2022/01/23 08:39:04;;;;;;;2.80;2.70;;;;;;;;;;5022936;28;20298;-68
2022/01/23 08:41:52;;;;;;;3.03;2.93;;;;;;;;;;5028059;28;20212;-64
2022/01/23 08:44:40;;;;;;;2.80;2.70;;;;;;;;;;5028728;28;20220;-68
2022/01/23 08:47:27;;;;;;;2.70;2.50;;;;;;;;;;5029593;28;20204;-69
2022/01/23 08:50:13;;;;;;;2.97;2.87;;;;;;;;;;5027937;28;20224;-68
2022/01/23 08:53:00;;;;;;;2.90;2.80;;;;;;;;;;5027787;28;20240;-68
2022/01/23 08:55:49;;;;;;;3.20;3.00;;;;;;;;;;5030994;28;20262;-68
2022/01/23 08:58:36;;;;;;;2.57;2.47;;;;;;;;;;5033624;28;20705;-68
2022/01/23 09:01:23;;;;;;;3.10;3.00;;;;;;;;;;5032591;28;20686;-68
2022/01/23 09:04:15;;;;;;;2.70;2.60;;;;;;;;;;5030707;28;20289;-68
2022/01/23 09:07:03;;;;;;;2.70;2.60;;;;;;;;;;5031736;28;20215;-68
2022/01/23 09:09:50;;;;;;;2.90;2.80;;;;;;;;;;5033593;28;20204;-68
2022/01/23 09:13:04;;;;;;;2.90;2.80;;;;;;;;;;5033332;28;20216;-69
2022/01/23 09:15:52;;;;;;;2.60;2.50;;;;;;;;;;5033217;28;20216;-68
2022/01/23 09:18:38;;;;;;;2.50;2.40;;;;;;;;;;5032550;28;20669;-69
2022/01/23 09:21:25;;;;;;;2.90;2.80;;;;;;;;;;5030376;28;20296;-69
2022/01/23 09:24:13;;;;;;;2.50;2.40;;;;;;;;;;5031714;28;20256;-68
2022/01/23 09:27:05;;;;;;;2.67;2.57;;;;;;;;;;5031841;28;20310;-68
2022/01/23 09:29:55;;;;;;;2.50;2.40;;;;;;;;;;5031981;28;20220;-68
2022/01/23 09:32:43;;;;;;;2.40;2.30;;;;;;;;;;5033093;28;20241;-67
2022/01/23 09:35:30;;;;;;;2.40;2.30;;;;;;;;;;5034645;28;20402;-68
2022/01/23 09:38:17;;;;;;;2.53;2.43;;;;;;;;;;5021378;28;20253;-68
2022/01/23 09:41:05;;;;;;;2.43;2.33;;;;;;;;;;5013435;28;20295;-68
2022/01/23 09:43:54;;;;;;;2.33;2.23;;;;;;;;;;5006406;28;20728;-68
2022/01/23 09:46:44;;;;;;;1.90;1.80;;;;;;;;;;5004681;28;20206;-68
2022/01/23 09:49:32;;;;;;;2.40;2.30;;;;;;;;;;5009228;28;20308;-68
2022/01/23 09:52:20;;;;;;;2.40;2.30;;;;;;;;;;5010182;28;20200;-68
2022/01/23 09:55:11;;;;;;;2.60;2.50;;;;;;;;;;5010989;28;20340;-68
2022/01/23 09:57:58;;;;;;;2.47;2.37;;;;;;;;;;5010787;28;20802;-68
2022/01/23 10:00:46;;;;;;;2.50;2.40;;;;;;;;;;5009472;28;20210;-68
2022/01/23 10:03:34;;;;;;;2.10;2.00;;;;;;;;;;5010922;28;20721;-67
2022/01/23 10:06:21;;;;;;;1.80;1.80;;;;;;;;;;5007304;28;20292;-67
2022/01/23 10:09:08;;;;;;;2.33;2.23;;;;;;;;;;5011778;28;20281;-68
2022/01/23 10:11:55;;;;;;;2.40;2.30;;;;;;;;;;5009909;28;20704;-67
2022/01/23 10:14:42;;;;;;;2.27;2.17;;;;;;;;;;5009599;28;20679;-68
2022/01/23 10:17:29;;;;;;;2.00;1.90;;;;;;;;;;5010463;28;20341;-68
2022/01/23 10:20:17;;;;;;;2.40;2.30;;;;;;;;;;5009151;28;20361;-69
2022/01/23 10:23:05;;;;;;;2.20;2.10;;;;;;;;;;5009605;28;20210;-68
2022/01/23 10:25:53;;;;;;;2.00;1.90;;;;;;;;;;5012610;28;20586;-68
2022/01/23 10:28:40;;;;;;;2.17;2.07;;;;;;;;;;5012290;28;20213;-68
2022/01/23 10:31:27;;;;;;;2.00;1.90;;;;;;;;;;5009700;28;20215;-68
2022/01/23 10:34:14;;;;;;;1.93;1.83;;;;;;;;;;5010049;28;20265;-68
2022/01/23 10:37:02;;;;;;;1.93;1.90;;;;;;;;;;5008142;28;20214;-68
2022/01/23 10:39:49;;;;;;;1.90;1.87;;;;;;;;;;5029642;28;20238;-68
2022/01/23 10:43:06;;;;;;;1.67;1.67;;;;;;;;;;5029487;28;20291;-68
2022/01/23 10:48:57;;;;;;;1.60;1.60;;;;;;;;;;5029807;28;20762;-68
2022/01/23 10:51:49;;;;;;;1.50;1.50;;;;;;;;;;5031574;28;20209;-69
2022/01/23 10:54:38;;;;;;;1.80;1.70;;;;;;;;;;5029892;28;20287;-68
2022/01/23 10:57:25;;;;;;;1.87;1.77;;;;;;;;;;5032309;28;20213;-69
2022/01/23 11:00:25;;;;;;;1.60;1.60;;;;;;;;;;5031353;28;20215;-68
2022/01/23 11:03:17;;;;;;;1.50;1.50;;;;;;;;;;5027673;28;20677;-68
2022/01/23 11:06:13;;;;;;;1.60;1.60;;;;;;;;;;5029408;28;20209;-68
2022/01/23 11:09:08;;;;;;;1.60;1.60;;;;;;;;;;5029631;28;20298;-69
2022/01/23 11:12:02;;;;;;;1.40;1.40;;;;;;;;;;5031077;28;20270;-68
2022/01/23 11:18:04;;;;;;;1.60;1.60;;;;;;;;;;5030219;28;20293;-69
2022/01/23 11:20:51;;;;;;;1.50;1.40;;;;;;;;;;5028837;28;20963;-68
2022/01/23 11:23:38;;;;;;;1.63;1.63;;;;;;;;;;5029541;28;20588;-69
2022/01/23 11:26:28;;;;;;;1.30;1.30;;;;;;;;;;5030342;28;20284;-69
2022/01/23 11:29:19;;;;;;;1.20;1.20;;;;;;;;;;5030491;28;20681;-68
2022/01/23 11:32:08;;;;;;;1.20;1.20;;;;;;;;;;5027733;28;20264;-69
2022/01/23 11:35:03;;;;;;;1.30;1.30;;;;;;;;;;5025995;28;20220;-67
2022/01/23 11:37:52;;;;;;;1.10;1.10;;;;;;;;;;5029715;28;20197;-68
2022/01/23 11:53:52;;;;;;;1.07;0.90;;;;;;;;;;5030863;28;20638;-69
2022/01/23 11:56:45;;;;;;;1.13;1.13;;;;;;;;;;5028021;28;20212;-68
2022/01/23 11:59:35;;;;;;;1.33;1.33;;;;;;;;;;5029683;28;20572;-68
2022/01/23 12:02:37;;;;;;;1.10;1.10;;;;;;;;;;5030313;28;20212;-68
2022/01/23 12:05:26;;;;;;;1.10;1.10;;;;;;;;;;5032270;28;20750;-68
2022/01/23 12:08:19;;;;;;;1.10;1.10;;;;;;;;;;5027512;28;20729;-68
2022/01/23 12:17:50;;;;;;;0.80;0.80;;;;;;;;;;5030742;28;20235;-68
2022/01/23 12:20:37;;;;;;;1.00;1.00;;;;;;;;;;5030009;28;20415;-68
2022/01/23 12:23:24;;;;;;;1.10;1.10;;;;;;;;;;5028353;28;20204;-68
2022/01/23 12:26:11;;;;;;;1.00;1.00;;;;;;;;;;5029988;28;20303;-69
2022/01/23 12:29:11;;;;;;;0.90;0.90;;;;;;;;;;5029838;28;20208;-68
2022/01/23 12:32:17;;;;;;;1.10;1.10;;;;;;;;;;5028194;28;20209;-68
2022/01/23 12:35:07;;;;;;;1.00;1.00;;;;;;;;;;5027001;28;20204;-68
2022/01/23 12:38:09;;;;;;;0.90;0.90;;;;;;;;;;5029291;28;20204;-68
2022/01/23 12:41:15;;;;;;;0.70;0.70;;;;;;;;;;5028993;28;20243;-68
2022/01/23 12:44:04;;;;;;;1.00;1.00;;;;;;;;;;5029215;28;20200;-68
2022/01/23 12:46:53;;;;;;;0.70;0.70;;;;;;;;;;5029804;28;20208;-67
2022/01/23 12:49:48;;;;;;;0.80;0.80;;;;;;;;;;5023388;28;20241;-67
2022/01/23 12:52:49;;;;;;;0.90;0.90;;;;;;;;;;5027938;28;20294;-67
2022/01/23 12:55:36;;;;;;;0.90;0.90;;;;;;;;;;5027993;28;20213;-68
2022/01/23 12:58:23;;;;;;;0.80;0.80;;;;;;;;;;5028923;28;20205;-68
2022/01/23 13:01:19;;;;;;;1.00;1.00;;;;;;;;;;5027022;28;20204;-68
2022/01/23 13:04:08;;;;;;;0.80;0.80;;;;;;;;;;5027645;28;20209;-68
2022/01/23 13:06:59;;;;;;;0.73;0.73;;;;;;;;;;5030987;28;20205;-68
2022/01/23 13:09:55;;;;;;;0.80;0.80;;;;;;;;;;5028500;28;20235;-68
2022/01/23 13:12:54;;;;;;;0.80;0.80;;;;;;;;;;5030415;28;20204;-67
2022/01/23 13:15:58;;;;;;;0.87;0.87;;;;;;;;;;5028662;28;20246;-68
2022/01/23 13:18:51;;;;;;;0.83;0.83;;;;;;;;;;5027379;28;20209;-68
2022/01/23 13:28:40;;;;;;;0.80;0.80;;;;;;;;;;5029315;28;20239;-68
2022/01/23 13:31:13;;;;;;;0.80;0.80;;;;;;;;;;5030517;28;20202;-68
2022/01/23 13:34:00;;;;;;;0.67;0.67;;;;;;;;;;5026536;28;20287;-68
2022/01/23 13:36:54;;;;;;;0.80;0.80;;;;;;;;;;5030037;28;20201;-68
2022/01/23 13:39:47;;;;;;;0.80;0.80;;;;;;;;;;5025235;28;20236;-68
2022/01/23 13:47:55;;;;;;;0.67;0.67;;;;;;;;;;5027467;28;20580;-68
2022/01/23 13:52:35;;;;;;;0.80;0.80;;;;;;;;;;5031585;28;20209;-68
2022/01/23 13:58:38;;;;;;;0.80;0.80;;;;;;;;;;5030663;28;20768;-68
2022/01/23 14:01:47;;;;;;;0.90;0.90;;;;;;;;;;5029018;28;20220;-67
2022/01/23 14:04:37;;;;;;;0.70;0.70;;;;;;;;;;5030962;28;20288;-68
2022/01/23 14:07:26;;;;;;;0.63;0.63;;;;;;;;;;5029840;28;20291;-68
2022/01/23 14:10:16;;;;;;;0.97;0.97;;;;;;;;;;5032766;28;20773;-68
2022/01/23 14:13:08;;;;;;;0.70;0.70;;;;;;;;;;5031468;28;20255;-69
2022/01/23 14:15:56;;;;;;;0.90;0.90;;;;;;;;;;5030797;28;20201;-70
2022/01/23 14:18:44;;;;;;;0.80;0.80;;;;;;;;;;5030734;28;20810;-68
2022/01/23 14:21:40;;;;;;;0.87;0.87;;;;;;;;;;5031978;28;20248;-68
2022/01/23 14:24:31;;;;;;;0.70;0.70;;;;;;;;;;5030188;28;20247;-68
2022/01/23 14:27:21;;;;;;;0.93;0.93;;;;;;;;;;5031739;28;20225;-68
2022/01/23 14:30:13;;;;;;;0.80;0.80;;;;;;;;;;5035615;28;20204;-68
2022/01/23 14:33:12;;;;;;;1.20;1.10;;;;;;;;;;5029243;28;20219;-68
2022/01/23 14:36:13;;;;;;;0.70;0.70;;;;;;;;;;5031993;28;20218;-68
2022/01/23 14:39:02;;;;;;;1.00;1.00;;;;;;;;;;5019655;28;20598;-69
2022/01/23 14:41:49;;;;;;;0.90;0.90;;;;;;;;;;5011808;28;20217;-68
2022/01/23 14:44:37;;;;;;;1.33;0.93;;;;;;;;;;5010113;28;20238;-68
2022/01/23 14:47:23;;;;;;;1.20;1.10;;;;;;;;;;5011085;28;20350;-68
2022/01/23 14:50:11;;;;;;;0.83;0.83;;;;;;;;;;5010176;28;20224;-68
2022/01/23 14:53:06;;;;;;;0.90;0.90;;;;;;;;;;5008993;28;20340;-68
2022/01/23 14:55:55;;;;;;;1.23;1.13;;;;;;;;;;5010867;28;20788;-68
2022/01/23 14:58:44;;;;;;;1.40;1.30;;;;;;;;;;5010441;28;20250;-68
2022/01/23 15:01:34;;;;;;;1.30;1.20;;;;;;;;;;5010928;28;20260;-68
2022/01/23 15:04:23;;;;;;;1.33;1.20;;;;;;;;;;5010998;28;20228;-68
2022/01/23 15:07:14;;;;;;;1.20;1.20;;;;;;;;;;5009111;28;20286;-68
2022/01/23 15:10:04;;;;;;;1.30;1.20;;;;;;;;;;5009196;28;20295;-68
2022/01/23 15:12:51;;;;;;;1.03;1.03;;;;;;;;;;5009612;28;20605;-68
2022/01/23 15:15:38;;;;;;;1.00;1.00;;;;;;;;;;5010220;28;20266;-67
2022/01/23 15:18:26;;;;;;;1.30;1.30;;;;;;;;;;5011855;28;20693;-68
2022/01/23 15:21:13;;;;;;;1.50;1.40;;;;;;;;;;5010479;28;20251;-68
2022/01/23 15:24:00;;;;;;;1.33;1.10;;;;;;;;;;5010143;28;20673;-68
2022/01/23 15:26:49;;;;;;;1.37;1.27;;;;;;;;;;5009044;28;20229;-68
2022/01/23 15:29:35;;;;;;;1.20;1.10;;;;;;;;;;5009261;28;20288;-68
2022/01/23 15:32:22;;;;;;;1.17;1.17;;;;;;;;;;5007238;28;20209;-67
2022/01/23 15:35:10;;;;;;;1.17;1.17;;;;;;;;;;5010696;28;20278;-68
2022/01/23 15:37:56;;;;;;;1.50;1.40;;;;;;;;;;5010761;28;20213;-68
2022/01/23 15:40:44;;;;;;;1.40;1.30;;;;;;;;;;5027599;28;20296;-67
2022/01/23 15:43:32;;;;;;;1.20;1.17;;;;;;;;;;5029123;28;20623;-67
2022/01/23 15:46:19;;;;;;;1.50;1.40;;;;;;;;;;5030906;28;20228;-67
2022/01/23 15:49:07;;;;;;;2.93;1.40;;;;;;;;;;5027729;28;20274;-67
2022/01/23 15:51:54;;;;;;;1.50;1.40;;;;;;;;;;5029058;28;20242;-68
2022/01/23 15:54:42;;;;;;;1.23;1.20;;;;;;;;;;5028700;28;20236;-68
2022/01/23 15:57:29;;;;;;;1.60;1.50;;;;;;;;;;5028315;28;20207;-67
2022/01/23 16:00:19;;;;;;;3.63;1.97;;;;;;;;;;5029560;28;20224;-67
2022/01/23 16:03:06;;;;;;;1.70;1.50;;;;;;;;;;5029413;28;20220;-69
2022/01/23 16:05:53;;;;;;;1.60;1.50;;;;;;;;;;5029102;28;20365;-67
2022/01/23 16:08:40;;;;;;;1.73;1.50;;;;;;;;;;5028321;28;20200;-66
2022/01/23 16:11:27;;;;;;;1.47;1.37;;;;;;;;;;5028972;28;20287;-68
2022/01/23 16:14:17;;;;;;;1.63;1.53;;;;;;;;;;5028641;28;20220;-67
2022/01/23 16:17:06;;;;;;;1.27;1.27;;;;;;;;;;5029919;28;20200;-68
2022/01/23 16:19:55;;;;;;;1.80;1.60;;;;;;;;;;5029540;28;20588;-67
2022/01/23 16:22:43;;;;;;;1.93;1.67;;;;;;;;;;5029819;28;20216;-68
2022/01/23 16:25:30;;;;;;;1.80;1.70;;;;;;;;;;5028417;28;20253;-68
2022/01/23 16:28:17;;;;;;;1.80;1.70;;;;;;;;;;5027718;28;20215;-68
2022/01/23 16:31:04;;;;;;;2.77;2.03;;;;;;;;;;5029159;28;20259;-68
2022/01/23 16:33:52;;;;;;;2.30;2.20;;;;;;;;;;5025592;28;20346;-68
2022/01/23 16:36:39;;;;;;;2.20;2.00;;;;;;;;;;5027832;28;20702;-67
2022/01/23 16:39:26;;;;;;;2.40;2.20;;;;;;;;;;5013515;28;20272;-67
2022/01/23 16:42:13;;;;;;;2.33;2.23;;;;;;;;;;5009421;28;20303;-67
2022/01/23 16:45:00;;;;;;;1.93;1.83;;;;;;;;;;5008483;28;20630;-68
2022/01/23 16:47:47;;;;;;;2.20;2.00;;;;;;;;;;5008923;28;20216;-68
2022/01/23 16:50:38;;;;;;;2.00;1.90;;;;;;;;;;5007595;28;20205;-67
2022/01/23 16:53:25;;;;;;;2.57;2.00;;;;;;;;;;5006836;28;20728;-68
2022/01/23 16:56:12;;;;;;;2.20;2.10;;;;;;;;;;5002355;28;20286;-68
2022/01/23 16:58:59;;;;;;;2.10;2.00;;;;;;;;;;5007309;28;20574;-68
2022/01/23 17:01:46;;;;;;;2.20;2.10;;;;;;;;;;5008074;28;20304;-68
2022/01/23 17:04:34;;;;;;;2.17;2.07;;;;;;;;;;5002620;28;20209;-67
2022/01/23 17:07:22;;;;;;;2.50;2.30;;;;;;;;;;5005079;28;20233;-67
2022/01/23 17:10:10;;;;;;;2.70;2.50;;;;;;;;;;5007223;28;20306;-68
2022/01/23 17:12:57;;;;;;;2.77;2.57;;;;;;;;;;5007760;28;20673;-67
2022/01/23 17:15:43;;;;;;;2.23;2.10;;;;;;;;;;5007633;28;20347;-68
2022/01/23 17:18:31;;;;;;;2.70;2.50;;;;;;;;;;5012510;28;20209;-66
2022/01/23 17:21:19;;;;;;;2.60;2.40;;;;;;;;;;5010714;28;20213;-67
2022/01/23 17:24:07;;;;;;;2.13;2.03;;;;;;;;;;5007173;28;20280;-67
2022/01/23 17:26:54;;;;;;;2.57;2.20;;;;;;;;;;5008720;28;20261;-68
2022/01/23 17:29:41;;;;;;;2.37;2.27;;;;;;;;;;5014365;28;20256;-68
2022/01/23 17:32:28;;;;;;;2.30;2.20;;;;;;;;;;5010816;28;20247;-68
2022/01/23 17:35:16;;;;;;;2.40;2.20;;;;;;;;;;5013240;28;20242;-67
2022/01/23 17:38:03;;;;;;;2.20;2.10;;;;;;;;;;5008574;28;20209;-67
2022/01/23 17:40:51;;;;;;;2.30;2.20;;;;;;;;;;5010263;28;20202;-67
2022/01/23 17:43:38;;;;;;;2.13;2.03;;;;;;;;;;5006758;28;20215;-67
2022/01/23 17:46:31;;;;;;;2.37;2.27;;;;;;;;;;5010092;28;20340;-69
2022/01/23 17:49:32;;;;;;;2.30;2.20;;;;;;;;;;5010864;28;20216;-68
2022/01/23 17:52:19;;;;;;;2.33;2.13;;;;;;;;;;5011653;28;20201;-68
2022/01/23 17:55:07;;;;;;;1.90;1.80;;;;;;;;;;5011023;28;20437;-67
2022/01/23 17:57:55;;;;;;;2.47;2.30;;;;;;;;;;5011750;28;20287;-67
2022/01/23 18:00:43;;;;;;;2.23;2.03;;;;;;;;;;5011773;28;20300;-67
2022/01/23 18:03:31;;;;;;;2.00;1.80;;;;;;;;;;5011599;28;20235;-67
2022/01/23 18:06:24;;;;;;;2.00;1.90;;;;;;;;;;5010176;28;20246;-68
2022/01/23 18:09:12;;;;;;;2.23;2.03;;;;;;;;;;5010140;28;20275;-68
2022/01/23 18:11:59;;;;;;;2.00;1.90;;;;;;;;;;5013052;28;20267;-67
2022/01/23 18:14:48;;;;;;;2.10;2.00;;;;;;;;;;5011051;28;20750;-68
2022/01/23 18:17:35;;;;;;;1.97;1.80;;;;;;;;;;5011662;28;20205;-68
2022/01/23 18:20:22;;;;;;;2.07;1.97;;;;;;;;;;5010032;28;20248;-68
2022/01/23 18:23:09;;;;;;;2.20;2.00;;;;;;;;;;5009795;28;20216;-67
2022/01/23 18:25:55;;;;;;;2.03;1.83;;;;;;;;;;5009345;28;20265;-67
2022/01/23 18:28:43;;;;;;;2.30;1.90;;;;;;;;;;5010001;28;20689;-67
2022/01/23 18:31:31;;;;;;;2.00;1.70;;;;;;;;;;5011573;28;20213;-68
2022/01/23 18:34:18;;;;;;;1.80;1.70;;;;;;;;;;5010756;28;20205;-68
2022/01/23 18:37:07;;;;;;;1.70;1.60;;;;;;;;;;5012404;28;20216;-67
2022/01/23 18:39:54;;;;;;;1.77;1.67;;;;;;;;;;5026913;28;20481;-67
2022/01/23 18:42:42;;;;;;;2.53;1.70;;;;;;;;;;5032256;28;20596;-67
2022/01/23 18:45:29;;;;;;;2.33;1.90;;;;;;;;;;5033020;28;20215;-67
2022/01/23 18:48:17;;;;;;;1.63;1.53;;;;;;;;;;5031824;28;20311;-67
2022/01/23 18:51:04;;;;;;;1.77;1.67;;;;;;;;;;5031713;28;20439;-67
2022/01/23 18:54:00;;;;;;;1.30;1.20;;;;;;;;;;5029856;28;20741;-67
2022/01/23 18:56:54;;;;;;;1.30;1.30;;;;;;;;;;5028211;28;20211;-67
2022/01/23 18:59:48;;;;;;;1.63;1.53;;;;;;;;;;5029465;28;20216;-67
2022/01/23 19:02:41;;;;;;;1.63;1.53;;;;;;;;;;5028787;28;20220;-68
2022/01/23 19:05:33;;;;;;;1.90;1.67;;;;;;;;;;5031227;28;20213;-67
2022/01/23 19:08:21;;;;;;;1.40;1.30;;;;;;;;;;5028690;28;20586;-68
2022/01/23 19:11:08;;;;;;;1.60;1.50;;;;;;;;;;5027880;28;20238;-67
2022/01/23 19:13:57;;;;;;;1.70;1.60;;;;;;;;;;5030735;28;20207;-67
2022/01/23 19:16:44;;;;;;;1.83;1.73;;;;;;;;;;5030364;28;20273;-68
2022/01/23 19:19:31;;;;;;;2.33;1.60;;;;;;;;;;5028164;28;20205;-68
2022/01/23 19:22:19;;;;;;;2.47;2.27;;;;;;;;;;5030499;28;20239;-68